Pervoural'sk, Russia
Current Conditions -  °F | °C
As of 8:00 PM on Monday 24 Nov 2014 (Local Time) from USSS Reporting Station
Blowing Snow Blowing Snow  
Wind Chill: -10°   Ceiling: 6700
Heat Index:   Visibility: 6mi
Dew Point: -6°   Wind: 18mph
Humidity: 52%   Direction: 280°W
Pressure: 30.39"   Gusts: NA
Location:  56.9°N, 59.97°E
Report Text: USSS 241500Z 28008MPS 9999 DRSN BKN067 M13/M21 Q1029 76810350TEMPO 27013MPS RMK QFE751
Loading
Personal Weather Stations






























Interactive Weather Map New forecast layout! Learn more

10-Day Weather Forecast

Advertisements
Track Severe Weather on mobile